sensor_id;sensor_type;location;lat;lon;timestamp;temperature;humidity
11107;DHT22;5607;48.302;14.294;2023-06-05T00:01:14;19.40;99.90
11107;DHT22;5607;48.302;14.294;2023-06-05T00:04:00;19.40;99.90
11107;DHT22;5607;48.302;14.294;2023-06-05T00:06:46;19.40;99.90
11107;DHT22;5607;48.302;14.294;2023-06-05T00:09:32;19.40;99.90
11107;DHT22;5607;48.302;14.294;2023-06-05T00:12:20;19.40;99.90
11107;DHT22;5607;48.302;14.294;2023-06-05T00:15:06;19.40;99.90
11107;DHT22;5607;48.302;14.294;2023-06-05T00:17:52;19.40;99.90
11107;DHT22;5607;48.302;14.294;2023-06-05T00:20:41;19.40;99.90
11107;DHT22;5607;48.302;14.294;2023-06-05T00:23:27;19.40;99.90
11107;DHT22;5607;48.302;14.294;2023-06-05T00:26:13;19.40;99.90
11107;DHT22;5607;48.302;14.294;2023-06-05T00:28:59;19.30;99.90
11107;DHT22;5607;48.302;14.294;2023-06-05T00:31:45;19.30;99.90
11107;DHT22;5607;48.302;14.294;2023-06-05T00:34:32;19.20;99.90
11107;DHT22;5607;48.302;14.294;2023-06-05T00:37:19;19.20;99.90
11107;DHT22;5607;48.302;14.294;2023-06-05T00:40:06;19.10;99.90
11107;DHT22;5607;48.302;14.294;2023-06-05T00:42:52;19.10;99.90
11107;DHT22;5607;48.302;14.294;2023-06-05T00:45:38;19.10;99.90
11107;DHT22;5607;48.302;14.294;2023-06-05T00:48:25;19.10;99.90
11107;DHT22;5607;48.302;14.294;2023-06-05T00:51:11;19.10;99.90
11107;DHT22;5607;48.302;14.294;2023-06-05T00:54:00;19.10;99.90
11107;DHT22;5607;48.302;14.294;2023-06-05T00:56:46;19.00;99.90
11107;DHT22;5607;48.302;14.294;2023-06-05T00:59:33;19.00;99.90
11107;DHT22;5607;48.302;14.294;2023-06-05T01:02:20;19.00;99.90
11107;DHT22;5607;48.302;14.294;2023-06-05T01:05:07;19.00;99.90
11107;DHT22;5607;48.302;14.294;2023-06-05T01:07:54;18.90;99.90
11107;DHT22;5607;48.302;14.294;2023-06-05T01:10:40;19.00;99.90
11107;DHT22;5607;48.302;14.294;2023-06-05T01:13:26;18.90;99.90
11107;DHT22;5607;48.302;14.294;2023-06-05T01:16:14;18.90;99.90
11107;DHT22;5607;48.302;14.294;2023-06-05T01:19:01;18.90;99.90
11107;DHT22;5607;48.302;14.294;2023-06-05T01:22:07;18.80;99.90
11107;DHT22;5607;48.302;14.294;2023-06-05T01:24:55;18.90;99.90
11107;DHT22;5607;48.302;14.294;2023-06-05T01:27:54;18.90;99.90
11107;DHT22;5607;48.302;14.294;2023-06-05T01:33:50;18.80;99.90
11107;DHT22;5607;48.302;14.294;2023-06-05T01:36:42;18.80;99.90
11107;DHT22;5607;48.302;14.294;2023-06-05T01:39:29;18.80;99.90
11107;DHT22;5607;48.302;14.294;2023-06-05T01:42:15;18.80;99.90
11107;DHT22;5607;48.302;14.294;2023-06-05T01:45:02;18.70;99.90
11107;DHT22;5607;48.302;14.294;2023-06-05T01:47:48;18.70;99.90
11107;DHT22;5607;48.302;14.294;2023-06-05T01:50:35;18.80;99.90
11107;DHT22;5607;48.302;14.294;2023-06-05T01:53:24;18.80;99.90
11107;DHT22;5607;48.302;14.294;2023-06-05T01:56:10;18.80;99.90
11107;DHT22;5607;48.302;14.294;2023-06-05T01:58:57;18.80;99.90
11107;DHT22;5607;48.302;14.294;2023-06-05T02:01:43;18.90;99.90
11107;DHT22;5607;48.302;14.294;2023-06-05T02:04:33;18.90;99.90
11107;DHT22;5607;48.302;14.294;2023-06-05T02:07:19;18.90;99.90
11107;DHT22;5607;48.302;14.294;2023-06-05T02:10:07;18.90;99.90
11107;DHT22;5607;48.302;14.294;2023-06-05T02:12:54;18.80;99.90
11107;DHT22;5607;48.302;14.294;2023-06-05T02:15:40;18.80;99.90
11107;DHT22;5607;48.302;14.294;2023-06-05T02:18:27;18.80;99.90
11107;DHT22;5607;48.302;14.294;2023-06-05T02:21:15;18.80;99.90
11107;DHT22;5607;48.302;14.294;2023-06-05T02:24:02;18.70;99.90
11107;DHT22;5607;48.302;14.294;2023-06-05T02:26:48;18.70;99.90
11107;DHT22;5607;48.302;14.294;2023-06-05T02:29:34;18.80;99.90
11107;DHT22;5607;48.302;14.294;2023-06-05T02:32:21;18.80;99.90
11107;DHT22;5607;48.302;14.294;2023-06-05T02:35:12;18.90;99.90
11107;DHT22;5607;48.302;14.294;2023-06-05T02:37:59;19.00;99.90
11107;DHT22;5607;48.302;14.294;2023-06-05T02:40:45;18.90;99.90
11107;DHT22;5607;48.302;14.294;2023-06-05T02:43:31;18.90;99.90
11107;DHT22;5607;48.302;14.294;2023-06-05T02:46:17;18.90;99.90
11107;DHT22;5607;48.302;14.294;2023-06-05T02:49:04;19.00;99.90
11107;DHT22;5607;48.302;14.294;2023-06-05T02:51:50;19.00;99.90
11107;DHT22;5607;48.302;14.294;2023-06-05T02:54:37;19.10;99.90
11107;DHT22;5607;48.302;14.294;2023-06-05T02:57:23;19.00;99.90
11107;DHT22;5607;48.302;14.294;2023-06-05T03:00:12;18.90;99.90
11107;DHT22;5607;48.302;14.294;2023-06-05T03:03:02;18.90;99.90
11107;DHT22;5607;48.302;14.294;2023-06-05T03:05:49;18.90;99.90
11107;DHT22;5607;48.302;14.294;2023-06-05T03:08:36;18.90;99.90
11107;DHT22;5607;48.302;14.294;2023-06-05T03:11:22;18.90;99.90
11107;DHT22;5607;48.302;14.294;2023-06-05T03:14:11;18.90;99.90
11107;DHT22;5607;48.302;14.294;2023-06-05T03:16:57;18.80;99.90
11107;DHT22;5607;48.302;14.294;2023-06-05T03:19:44;18.80;99.90
11107;DHT22;5607;48.302;14.294;2023-06-05T03:22:30;18.80;99.90
11107;DHT22;5607;48.302;14.294;2023-06-05T03:25:18;18.90;99.90
11107;DHT22;5607;48.302;14.294;2023-06-05T03:28:04;18.80;99.90
11107;DHT22;5607;48.302;14.294;2023-06-05T03:30:50;18.90;99.90
11107;DHT22;5607;48.302;14.294;2023-06-05T03:33:36;18.90;99.90
11107;DHT22;5607;48.302;14.294;2023-06-05T03:36:22;18.80;99.90
11107;DHT22;5607;48.302;14.294;2023-06-05T03:39:09;18.80;99.90
11107;DHT22;5607;48.302;14.294;2023-06-05T03:41:55;18.80;99.90
11107;DHT22;5607;48.302;14.294;2023-06-05T03:44:41;18.90;99.90
11107;DHT22;5607;48.302;14.294;2023-06-05T03:47:27;18.80;99.90
11107;DHT22;5607;48.302;14.294;2023-06-05T03:50:14;18.90;99.90
11107;DHT22;5607;48.302;14.294;2023-06-05T03:53:02;18.80;99.90
11107;DHT22;5607;48.302;14.294;2023-06-05T03:55:49;18.80;99.90
11107;DHT22;5607;48.302;14.294;2023-06-05T03:58:38;18.80;99.90
11107;DHT22;5607;48.302;14.294;2023-06-05T04:01:25;18.70;99.90
11107;DHT22;5607;48.302;14.294;2023-06-05T04:04:11;18.80;99.90
11107;DHT22;5607;48.302;14.294;2023-06-05T04:06:58;18.80;99.90
11107;DHT22;5607;48.302;14.294;2023-06-05T04:09:44;18.90;99.90
11107;DHT22;5607;48.302;14.294;2023-06-05T04:12:30;18.90;99.90
11107;DHT22;5607;48.302;14.294;2023-06-05T04:15:17;18.90;99.90
11107;DHT22;5607;48.302;14.294;2023-06-05T04:18:03;18.90;99.90
11107;DHT22;5607;48.302;14.294;2023-06-05T04:20:50;18.90;99.90
11107;DHT22;5607;48.302;14.294;2023-06-05T04:23:36;18.90;99.90
11107;DHT22;5607;48.302;14.294;2023-06-05T04:26:22;19.00;99.90
11107;DHT22;5607;48.302;14.294;2023-06-05T04:29:12;19.00;99.90
11107;DHT22;5607;48.302;14.294;2023-06-05T04:32:02;19.00;99.90
11107;DHT22;5607;48.302;14.294;2023-06-05T04:34:50;19.00;99.90
11107;DHT22;5607;48.302;14.294;2023-06-05T04:37:38;19.10;99.90
11107;DHT22;5607;48.302;14.294;2023-06-05T04:40:24;19.10;99.90
11107;DHT22;5607;48.302;14.294;2023-06-05T04:43:11;19.20;99.90
11107;DHT22;5607;48.302;14.294;2023-06-05T04:45:57;19.20;99.90
11107;DHT22;5607;48.302;14.294;2023-06-05T04:48:46;19.20;99.90
11107;DHT22;5607;48.302;14.294;2023-06-05T04:51:32;19.10;99.90
11107;DHT22;5607;48.302;14.294;2023-06-05T04:54:20;19.20;99.90
11107;DHT22;5607;48.302;14.294;2023-06-05T04:57:06;19.30;99.90
11107;DHT22;5607;48.302;14.294;2023-06-05T04:59:55;19.40;99.90
11107;DHT22;5607;48.302;14.294;2023-06-05T05:02:42;19.40;99.90
11107;DHT22;5607;48.302;14.294;2023-06-05T05:05:29;19.30;99.90
11107;DHT22;5607;48.302;14.294;2023-06-05T05:08:15;19.40;99.90
11107;DHT22;5607;48.302;14.294;2023-06-05T05:11:02;19.40;99.90
11107;DHT22;5607;48.302;14.294;2023-06-05T05:13:48;19.40;99.90
11107;DHT22;5607;48.302;14.294;2023-06-05T05:16:34;19.30;99.90
11107;DHT22;5607;48.302;14.294;2023-06-05T05:19:21;19.30;99.90
11107;DHT22;5607;48.302;14.294;2023-06-05T05:22:10;19.40;99.90
11107;DHT22;5607;48.302;14.294;2023-06-05T05:24:57;19.50;99.90
11107;DHT22;5607;48.302;14.294;2023-06-05T05:27:43;19.60;99.90
11107;DHT22;5607;48.302;14.294;2023-06-05T05:30:29;19.70;99.90
11107;DHT22;5607;48.302;14.294;2023-06-05T05:33:16;19.70;99.90
11107;DHT22;5607;48.302;14.294;2023-06-05T05:36:02;19.80;99.90
11107;DHT22;5607;48.302;14.294;2023-06-05T05:38:49;20.00;99.90
11107;DHT22;5607;48.302;14.294;2023-06-05T05:41:36;20.20;99.90
11107;DHT22;5607;48.302;14.294;2023-06-05T05:44:22;20.30;99.90
11107;DHT22;5607;48.302;14.294;2023-06-05T05:47:08;20.40;99.90
11107;DHT22;5607;48.302;14.294;2023-06-05T05:49:55;20.60;99.90
11107;DHT22;5607;48.302;14.294;2023-06-05T05:52:41;20.60;99.90
11107;DHT22;5607;48.302;14.294;2023-06-05T05:55:29;20.70;99.90
11107;DHT22;5607;48.302;14.294;2023-06-05T05:58:15;20.90;99.90
11107;DHT22;5607;48.302;14.294;2023-06-05T06:01:02;20.90;99.90
11107;DHT22;5607;48.302;14.294;2023-06-05T06:03:48;21.00;99.90
11107;DHT22;5607;48.302;14.294;2023-06-05T06:06:35;20.90;99.90
11107;DHT22;5607;48.302;14.294;2023-06-05T06:09:23;21.00;99.90
11107;DHT22;5607;48.302;14.294;2023-06-05T06:12:11;21.20;99.90
11107;DHT22;5607;48.302;14.294;2023-06-05T06:14:57;21.40;99.90
11107;DHT22;5607;48.302;14.294;2023-06-05T06:17:43;21.30;99.90
11107;DHT22;5607;48.302;14.294;2023-06-05T06:20:29;21.40;99.90
11107;DHT22;5607;48.302;14.294;2023-06-05T06:23:16;21.60;99.90
11107;DHT22;5607;48.302;14.294;2023-06-05T06:26:02;21.60;99.90
11107;DHT22;5607;48.302;14.294;2023-06-05T06:28:52;21.60;99.90
11107;DHT22;5607;48.302;14.294;2023-06-05T06:31:38;21.60;99.90
11107;DHT22;5607;48.302;14.294;2023-06-05T06:34:24;21.60;99.90
11107;DHT22;5607;48.302;14.294;2023-06-05T06:37:14;21.70;99.90
11107;DHT22;5607;48.302;14.294;2023-06-05T06:40:03;21.80;99.90
11107;DHT22;5607;48.302;14.294;2023-06-05T06:42:54;21.90;99.90
11107;DHT22;5607;48.302;14.294;2023-06-05T06:45:41;22.10;99.90
11107;DHT22;5607;48.302;14.294;2023-06-05T06:48:27;22.30;99.90
11107;DHT22;5607;48.302;14.294;2023-06-05T06:51:14;22.60;99.90
11107;DHT22;5607;48.302;14.294;2023-06-05T06:54:01;22.90;99.90
11107;DHT22;5607;48.302;14.294;2023-06-05T06:56:48;23.20;99.90
11107;DHT22;5607;48.302;14.294;2023-06-05T06:59:36;23.30;99.90
11107;DHT22;5607;48.302;14.294;2023-06-05T07:02:23;23.50;99.90
11107;DHT22;5607;48.302;14.294;2023-06-05T07:05:10;23.60;99.90
11107;DHT22;5607;48.302;14.294;2023-06-05T07:07:56;23.70;99.90
11107;DHT22;5607;48.302;14.294;2023-06-05T07:10:46;23.80;99.90
11107;DHT22;5607;48.302;14.294;2023-06-05T07:13:33;23.60;99.90
11107;DHT22;5607;48.302;14.294;2023-06-05T07:16:19;23.30;99.90
11107;DHT22;5607;48.302;14.294;2023-06-05T07:19:05;23.30;99.90
11107;DHT22;5607;48.302;14.294;2023-06-05T07:21:51;23.20;99.90
11107;DHT22;5607;48.302;14.294;2023-06-05T07:24:37;23.10;99.90
11107;DHT22;5607;48.302;14.294;2023-06-05T07:27:27;23.10;99.90
11107;DHT22;5607;48.302;14.294;2023-06-05T07:30:15;23.20;99.90
11107;DHT22;5607;48.302;14.294;2023-06-05T07:33:01;23.40;99.90
11107;DHT22;5607;48.302;14.294;2023-06-05T07:35:47;23.60;99.90
11107;DHT22;5607;48.302;14.294;2023-06-05T07:38:34;23.60;99.90
11107;DHT22;5607;48.302;14.294;2023-06-05T07:41:20;23.50;99.90
11107;DHT22;5607;48.302;14.294;2023-06-05T07:47:31;23.80;99.90
11107;DHT22;5607;48.302;14.294;2023-06-05T07:50:18;24.30;99.90
11107;DHT22;5607;48.302;14.294;2023-06-05T07:53:04;24.60;99.90
11107;DHT22;5607;48.302;14.294;2023-06-05T07:55:50;24.60;99.90
11107;DHT22;5607;48.302;14.294;2023-06-05T07:58:38;24.60;99.90
11107;DHT22;5607;48.302;14.294;2023-06-05T08:01:25;24.60;99.90
11107;DHT22;5607;48.302;14.294;2023-06-05T08:04:12;24.40;99.90
11107;DHT22;5607;48.302;14.294;2023-06-05T08:06:58;24.10;99.90
11107;DHT22;5607;48.302;14.294;2023-06-05T08:09:44;24.00;99.90
11107;DHT22;5607;48.302;14.294;2023-06-05T08:12:30;23.90;99.90
11107;DHT22;5607;48.302;14.294;2023-06-05T08:15:17;23.90;99.90
11107;DHT22;5607;48.302;14.294;2023-06-05T08:18:03;23.90;99.90
11107;DHT22;5607;48.302;14.294;2023-06-05T08:20:49;24.00;99.90
11107;DHT22;5607;48.302;14.294;2023-06-05T08:23:36;24.00;99.90
11107;DHT22;5607;48.302;14.294;2023-06-05T08:26:22;23.90;99.90
11107;DHT22;5607;48.302;14.294;2023-06-05T08:29:10;23.90;99.90
11107;DHT22;5607;48.302;14.294;2023-06-05T08:31:58;24.00;99.90
11107;DHT22;5607;48.302;14.294;2023-06-05T08:34:44;24.10;99.90
11107;DHT22;5607;48.302;14.294;2023-06-05T08:37:30;24.30;99.90
11107;DHT22;5607;48.302;14.294;2023-06-05T08:40:18;24.40;99.90
11107;DHT22;5607;48.302;14.294;2023-06-05T08:43:06;24.30;99.90
11107;DHT22;5607;48.302;14.294;2023-06-05T08:45:52;24.40;99.90
11107;DHT22;5607;48.302;14.294;2023-06-05T08:48:43;24.30;99.90
11107;DHT22;5607;48.302;14.294;2023-06-05T08:51:30;24.10;99.90
11107;DHT22;5607;48.302;14.294;2023-06-05T08:54:16;24.00;99.90
11107;DHT22;5607;48.302;14.294;2023-06-05T08:57:04;23.70;99.90
11107;DHT22;5607;48.302;14.294;2023-06-05T08:59:50;23.50;99.90
11107;DHT22;5607;48.302;14.294;2023-06-05T09:02:38;23.30;99.90
11107;DHT22;5607;48.302;14.294;2023-06-05T09:05:24;23.50;99.90
11107;DHT22;5607;48.302;14.294;2023-06-05T09:08:11;23.80;99.90
11107;DHT22;5607;48.302;14.294;2023-06-05T09:14:02;24.50;99.90
11107;DHT22;5607;48.302;14.294;2023-06-05T09:16:50;24.80;99.90
11107;DHT22;5607;48.302;14.294;2023-06-05T09:19:40;24.90;99.90
11107;DHT22;5607;48.302;14.294;2023-06-05T09:22:32;24.90;99.90
11107;DHT22;5607;48.302;14.294;2023-06-05T09:25:21;24.90;99.90
11107;DHT22;5607;48.302;14.294;2023-06-05T09:28:08;25.30;99.90
11107;DHT22;5607;48.302;14.294;2023-06-05T09:30:55;25.50;99.90
11107;DHT22;5607;48.302;14.294;2023-06-05T09:33:45;25.70;99.90
11107;DHT22;5607;48.302;14.294;2023-06-05T09:36:45;25.80;99.90
11107;DHT22;5607;48.302;14.294;2023-06-05T09:39:33;25.90;99.90
11107;DHT22;5607;48.302;14.294;2023-06-05T09:42:30;25.80;99.90
11107;DHT22;5607;48.302;14.294;2023-06-05T09:45:16;25.90;99.90
11107;DHT22;5607;48.302;14.294;2023-06-05T09:48:12;25.70;99.90
11107;DHT22;5607;48.302;14.294;2023-06-05T09:51:07;25.60;99.90
11107;DHT22;5607;48.302;14.294;2023-06-05T09:53:53;25.40;99.90
11107;DHT22;5607;48.302;14.294;2023-06-05T09:56:40;25.50;99.90
11107;DHT22;5607;48.302;14.294;2023-06-05T09:59:32;25.50;99.90
11107;DHT22;5607;48.302;14.294;2023-06-05T10:02:19;25.50;99.90
11107;DHT22;5607;48.302;14.294;2023-06-05T10:05:06;25.60;99.90
11107;DHT22;5607;48.302;14.294;2023-06-05T10:07:54;25.80;99.90
11107;DHT22;5607;48.302;14.294;2023-06-05T10:10:42;25.80;99.90
11107;DHT22;5607;48.302;14.294;2023-06-05T10:13:30;25.80;99.90
11107;DHT22;5607;48.302;14.294;2023-06-05T10:16:16;25.80;99.90
11107;DHT22;5607;48.302;14.294;2023-06-05T10:19:06;26.00;99.90
11107;DHT22;5607;48.302;14.294;2023-06-05T10:21:52;25.90;99.90
11107;DHT22;5607;48.302;14.294;2023-06-05T10:24:43;25.80;99.90
11107;DHT22;5607;48.302;14.294;2023-06-05T10:27:50;25.80;99.90
11107;DHT22;5607;48.302;14.294;2023-06-05T10:39:45;26.10;99.90
11107;DHT22;5607;48.302;14.294;2023-06-05T10:42:32;26.00;99.90
11107;DHT22;5607;48.302;14.294;2023-06-05T10:45:31;26.10;99.90
11107;DHT22;5607;48.302;14.294;2023-06-05T10:48:18;26.00;99.90
11107;DHT22;5607;48.302;14.294;2023-06-05T10:54:13;26.30;99.90
11107;DHT22;5607;48.302;14.294;2023-06-05T10:57:03;26.40;99.90
11107;DHT22;5607;48.302;14.294;2023-06-05T11:00:04;26.70;99.90
11107;DHT22;5607;48.302;14.294;2023-06-05T11:02:52;26.60;99.90
11107;DHT22;5607;48.302;14.294;2023-06-05T11:05:39;26.50;99.90
11107;DHT22;5607;48.302;14.294;2023-06-05T11:09:05;26.40;99.90
11107;DHT22;5607;48.302;14.294;2023-06-05T11:11:55;26.30;99.90
11107;DHT22;5607;48.302;14.294;2023-06-05T11:14:45;26.00;99.90
11107;DHT22;5607;48.302;14.294;2023-06-05T11:17:32;25.70;99.90
11107;DHT22;5607;48.302;14.294;2023-06-05T11:23:14;25.30;99.90
11107;DHT22;5607;48.302;14.294;2023-06-05T11:26:37;25.10;99.90
11107;DHT22;5607;48.302;14.294;2023-06-05T11:29:14;25.10;99.90
11107;DHT22;5607;48.302;14.294;2023-06-05T11:32:10;25.20;99.90
11107;DHT22;5607;48.302;14.294;2023-06-05T11:34:56;25.30;99.90
11107;DHT22;5607;48.302;14.294;2023-06-05T11:37:43;25.30;99.90
11107;DHT22;5607;48.302;14.294;2023-06-05T11:40:30;25.40;99.90
11107;DHT22;5607;48.302;14.294;2023-06-05T11:43:17;25.40;99.90
11107;DHT22;5607;48.302;14.294;2023-06-05T11:46:03;25.40;99.90
11107;DHT22;5607;48.302;14.294;2023-06-05T11:48:49;25.30;99.90
11107;DHT22;5607;48.302;14.294;2023-06-05T11:51:36;25.20;99.90
11107;DHT22;5607;48.302;14.294;2023-06-05T11:54:26;25.20;99.90
11107;DHT22;5607;48.302;14.294;2023-06-05T11:57:13;25.10;99.90
11107;DHT22;5607;48.302;14.294;2023-06-05T11:59:59;25.30;99.90
11107;DHT22;5607;48.302;14.294;2023-06-05T12:02:46;25.20;99.90
11107;DHT22;5607;48.302;14.294;2023-06-05T12:05:32;25.30;99.90
11107;DHT22;5607;48.302;14.294;2023-06-05T12:08:25;25.40;99.90
11107;DHT22;5607;48.302;14.294;2023-06-05T12:11:29;25.60;99.90
11107;DHT22;5607;48.302;14.294;2023-06-05T12:14:29;25.70;99.90
11107;DHT22;5607;48.302;14.294;2023-06-05T12:17:15;25.70;99.90
11107;DHT22;5607;48.302;14.294;2023-06-05T12:20:03;25.50;99.90
11107;DHT22;5607;48.302;14.294;2023-06-05T12:22:50;25.30;99.90
11107;DHT22;5607;48.302;14.294;2023-06-05T12:25:36;25.10;99.90
11107;DHT22;5607;48.302;14.294;2023-06-05T12:28:24;25.10;99.90
11107;DHT22;5607;48.302;14.294;2023-06-05T12:34:17;25.00;99.90
11107;DHT22;5607;48.302;14.294;2023-06-05T12:37:04;25.00;99.90
11107;DHT22;5607;48.302;14.294;2023-06-05T12:39:51;24.90;99.90
11107;DHT22;5607;48.302;14.294;2023-06-05T12:42:38;24.70;99.90
11107;DHT22;5607;48.302;14.294;2023-06-05T12:45:24;24.50;99.90
11107;DHT22;5607;48.302;14.294;2023-06-05T12:48:10;24.50;99.90
11107;DHT22;5607;48.302;14.294;2023-06-05T12:50:58;24.40;99.90
11107;DHT22;5607;48.302;14.294;2023-06-05T12:53:45;24.40;99.90
11107;DHT22;5607;48.302;14.294;2023-06-05T12:56:31;24.40;99.90
11107;DHT22;5607;48.302;14.294;2023-06-05T12:59:20;24.40;99.90
11107;DHT22;5607;48.302;14.294;2023-06-05T13:02:07;24.30;99.90
11107;DHT22;5607;48.302;14.294;2023-06-05T13:04:54;24.20;99.90
11107;DHT22;5607;48.302;14.294;2023-06-05T13:07:41;24.20;99.90
11107;DHT22;5607;48.302;14.294;2023-06-05T13:10:27;24.00;99.90
11107;DHT22;5607;48.302;14.294;2023-06-05T13:13:13;23.90;99.90
11107;DHT22;5607;48.302;14.294;2023-06-05T13:16:01;23.90;99.90
11107;DHT22;5607;48.302;14.294;2023-06-05T13:18:47;23.90;99.90
11107;DHT22;5607;48.302;14.294;2023-06-05T13:21:33;23.70;99.90
11107;DHT22;5607;48.302;14.294;2023-06-05T13:24:20;23.60;99.90
11107;DHT22;5607;48.302;14.294;2023-06-05T13:27:07;23.60;99.90
11107;DHT22;5607;48.302;14.294;2023-06-05T13:29:54;23.50;99.90
11107;DHT22;5607;48.302;14.294;2023-06-05T13:32:41;23.40;99.90
11107;DHT22;5607;48.302;14.294;2023-06-05T13:35:27;23.50;99.90
11107;DHT22;5607;48.302;14.294;2023-06-05T13:38:13;23.40;99.90
11107;DHT22;5607;48.302;14.294;2023-06-05T13:40:59;23.30;99.90
11107;DHT22;5607;48.302;14.294;2023-06-05T13:43:46;23.30;99.90
11107;DHT22;5607;48.302;14.294;2023-06-05T13:46:32;23.40;99.90
11107;DHT22;5607;48.302;14.294;2023-06-05T13:49:18;23.40;99.90
11107;DHT22;5607;48.302;14.294;2023-06-05T13:52:04;23.60;99.90
11107;DHT22;5607;48.302;14.294;2023-06-05T13:54:51;23.70;99.90
11107;DHT22;5607;48.302;14.294;2023-06-05T13:57:37;23.70;99.90
11107;DHT22;5607;48.302;14.294;2023-06-05T14:00:23;23.80;99.90
11107;DHT22;5607;48.302;14.294;2023-06-05T14:03:10;23.90;99.90
11107;DHT22;5607;48.302;14.294;2023-06-05T14:05:56;24.00;99.90
11107;DHT22;5607;48.302;14.294;2023-06-05T14:08:42;24.00;99.90
11107;DHT22;5607;48.302;14.294;2023-06-05T14:11:29;24.20;99.90
11107;DHT22;5607;48.302;14.294;2023-06-05T14:14:15;24.10;99.90
11107;DHT22;5607;48.302;14.294;2023-06-05T14:17:01;24.00;99.90
11107;DHT22;5607;48.302;14.294;2023-06-05T14:19:48;23.80;99.90
11107;DHT22;5607;48.302;14.294;2023-06-05T14:22:34;23.60;99.90
11107;DHT22;5607;48.302;14.294;2023-06-05T14:25:20;23.60;99.90
11107;DHT22;5607;48.302;14.294;2023-06-05T14:28:06;23.40;99.90
11107;DHT22;5607;48.302;14.294;2023-06-05T14:30:53;23.40;99.90
11107;DHT22;5607;48.302;14.294;2023-06-05T14:33:40;23.60;99.90
11107;DHT22;5607;48.302;14.294;2023-06-05T14:36:26;23.60;99.90
11107;DHT22;5607;48.302;14.294;2023-06-05T14:39:13;23.40;99.90
11107;DHT22;5607;48.302;14.294;2023-06-05T14:41:59;23.40;99.90
11107;DHT22;5607;48.302;14.294;2023-06-05T14:44:46;23.40;99.90
11107;DHT22;5607;48.302;14.294;2023-06-05T14:47:32;23.10;99.90
11107;DHT22;5607;48.302;14.294;2023-06-05T14:50:19;23.10;99.90
11107;DHT22;5607;48.302;14.294;2023-06-05T14:53:05;22.90;99.90
11107;DHT22;5607;48.302;14.294;2023-06-05T14:55:51;22.80;99.90
11107;DHT22;5607;48.302;14.294;2023-06-05T14:58:38;22.70;99.90
11107;DHT22;5607;48.302;14.294;2023-06-05T15:01:24;22.60;99.90
11107;DHT22;5607;48.302;14.294;2023-06-05T15:04:10;22.70;99.90
11107;DHT22;5607;48.302;14.294;2023-06-05T15:06:57;22.70;99.90
11107;DHT22;5607;48.302;14.294;2023-06-05T15:09:43;22.70;99.90
11107;DHT22;5607;48.302;14.294;2023-06-05T15:12:29;22.70;99.90
11107;DHT22;5607;48.302;14.294;2023-06-05T15:15:15;22.70;99.90
11107;DHT22;5607;48.302;14.294;2023-06-05T15:18:02;22.70;99.90
11107;DHT22;5607;48.302;14.294;2023-06-05T15:20:49;22.60;99.90
11107;DHT22;5607;48.302;14.294;2023-06-05T15:23:35;22.60;99.90
11107;DHT22;5607;48.302;14.294;2023-06-05T15:26:21;22.60;99.90
11107;DHT22;5607;48.302;14.294;2023-06-05T15:29:08;22.50;99.90
11107;DHT22;5607;48.302;14.294;2023-06-05T15:31:54;22.40;99.90
11107;DHT22;5607;48.302;14.294;2023-06-05T15:34:40;22.30;99.90
11107;DHT22;5607;48.302;14.294;2023-06-05T15:37:27;22.30;99.90
11107;DHT22;5607;48.302;14.294;2023-06-05T15:40:13;22.20;99.90
11107;DHT22;5607;48.302;14.294;2023-06-05T15:43:05;22.20;99.90
11107;DHT22;5607;48.302;14.294;2023-06-05T15:45:54;22.10;99.90
11107;DHT22;5607;48.302;14.294;2023-06-05T15:48:40;22.10;99.90
11107;DHT22;5607;48.302;14.294;2023-06-05T15:51:27;22.10;99.90
11107;DHT22;5607;48.302;14.294;2023-06-05T15:54:13;22.20;99.90
11107;DHT22;5607;48.302;14.294;2023-06-05T15:57:01;22.10;99.90
11107;DHT22;5607;48.302;14.294;2023-06-05T15:59:48;22.20;99.90
11107;DHT22;5607;48.302;14.294;2023-06-05T16:02:35;22.10;99.90
11107;DHT22;5607;48.302;14.294;2023-06-05T16:05:21;21.90;99.90
11107;DHT22;5607;48.302;14.294;2023-06-05T16:08:07;21.90;99.90
11107;DHT22;5607;48.302;14.294;2023-06-05T16:10:53;21.80;99.90
11107;DHT22;5607;48.302;14.294;2023-06-05T16:13:40;21.80;99.90
11107;DHT22;5607;48.302;14.294;2023-06-05T16:16:27;21.90;99.90
11107;DHT22;5607;48.302;14.294;2023-06-05T16:19:14;21.80;99.90
11107;DHT22;5607;48.302;14.294;2023-06-05T16:22:00;21.70;99.90
11107;DHT22;5607;48.302;14.294;2023-06-05T16:24:46;21.60;99.90
11107;DHT22;5607;48.302;14.294;2023-06-05T16:27:32;21.50;99.90
11107;DHT22;5607;48.302;14.294;2023-06-05T16:30:19;21.40;99.90
11107;DHT22;5607;48.302;14.294;2023-06-05T16:33:05;21.30;99.90
11107;DHT22;5607;48.302;14.294;2023-06-05T16:35:51;21.10;99.90
11107;DHT22;5607;48.302;14.294;2023-06-05T16:38:37;21.00;99.90
11107;DHT22;5607;48.302;14.294;2023-06-05T16:41:23;21.00;99.90
11107;DHT22;5607;48.302;14.294;2023-06-05T16:44:10;21.00;99.90
11107;DHT22;5607;48.302;14.294;2023-06-05T16:46:57;21.00;99.90
11107;DHT22;5607;48.302;14.294;2023-06-05T16:49:45;21.00;1.00
11107;DHT22;5607;48.302;14.294;2023-06-05T16:52:31;21.00;1.00
11107;DHT22;5607;48.302;14.294;2023-06-05T16:55:17;21.00;99.90
11107;DHT22;5607;48.302;14.294;2023-06-05T16:58:04;20.90;1.00
11107;DHT22;5607;48.302;14.294;2023-06-05T17:00:50;20.80;1.00
11107;DHT22;5607;48.302;14.294;2023-06-05T17:03:37;20.90;1.00
11107;DHT22;5607;48.302;14.294;2023-06-05T17:06:24;20.80;1.00
11107;DHT22;5607;48.302;14.294;2023-06-05T17:09:10;20.70;1.00
11107;DHT22;5607;48.302;14.294;2023-06-05T17:11:58;20.70;1.00
11107;DHT22;5607;48.302;14.294;2023-06-05T17:14:45;20.70;1.00
11107;DHT22;5607;48.302;14.294;2023-06-05T17:17:31;20.70;1.00
11107;DHT22;5607;48.302;14.294;2023-06-05T17:20:17;20.70;1.00
11107;DHT22;5607;48.302;14.294;2023-06-05T17:23:04;20.70;1.00
11107;DHT22;5607;48.302;14.294;2023-06-05T17:25:50;20.70;1.00
11107;DHT22;5607;48.302;14.294;2023-06-05T17:28:37;20.70;1.00
11107;DHT22;5607;48.302;14.294;2023-06-05T17:31:27;20.70;1.00
11107;DHT22;5607;48.302;14.294;2023-06-05T17:34:14;20.80;1.00
11107;DHT22;5607;48.302;14.294;2023-06-05T17:37:01;20.60;1.00
11107;DHT22;5607;48.302;14.294;2023-06-05T17:39:47;20.60;1.00
11107;DHT22;5607;48.302;14.294;2023-06-05T17:42:33;20.50;1.00
11107;DHT22;5607;48.302;14.294;2023-06-05T17:45:19;20.50;1.00
11107;DHT22;5607;48.302;14.294;2023-06-05T17:48:06;20.50;1.00
11107;DHT22;5607;48.302;14.294;2023-06-05T17:50:52;20.50;1.00
11107;DHT22;5607;48.302;14.294;2023-06-05T17:53:38;20.40;1.00
11107;DHT22;5607;48.302;14.294;2023-06-05T17:56:26;20.40;1.00
11107;DHT22;5607;48.302;14.294;2023-06-05T17:59:12;20.50;99.90
11107;DHT22;5607;48.302;14.294;2023-06-05T18:01:58;20.60;99.90
11107;DHT22;5607;48.302;14.294;2023-06-05T18:04:45;20.40;99.90
11107;DHT22;5607;48.302;14.294;2023-06-05T18:07:31;20.40;1.00